sensor_id;sensor_type;location;lat;lon;timestamp;P1;durP1;ratioP1;P2;durP2;ratioP2
1837;SDS011;918;50.796;6.772;2024-02-21T00:02:19;9.60;;;6.70;;
1837;SDS011;918;50.796;6.772;2024-02-21T00:04:44;9.77;;;6.70;;
1837;SDS011;918;50.796;6.772;2024-02-21T00:07:09;9.50;;;7.20;;
1837;SDS011;918;50.796;6.772;2024-02-21T00:09:35;11.53;;;7.47;;
1837;SDS011;918;50.796;6.772;2024-02-21T00:12:00;9.23;;;6.73;;
1837;SDS011;918;50.796;6.772;2024-02-21T00:14:26;11.50;;;7.27;;
1837;SDS011;918;50.796;6.772;2024-02-21T00:16:51;11.47;;;6.53;;
1837;SDS011;918;50.796;6.772;2024-02-21T00:19:16;7.90;;;6.60;;
1837;SDS011;918;50.796;6.772;2024-02-21T00:21:42;14.57;;;7.00;;
1837;SDS011;918;50.796;6.772;2024-02-21T00:24:07;9.73;;;7.20;;
1837;SDS011;918;50.796;6.772;2024-02-21T00:26:32;10.00;;;6.50;;
1837;SDS011;918;50.796;6.772;2024-02-21T00:28:57;10.53;;;6.87;;
1837;SDS011;918;50.796;6.772;2024-02-21T00:31:23;8.00;;;6.37;;
1837;SDS011;918;50.796;6.772;2024-02-21T00:33:48;14.30;;;6.70;;
1837;SDS011;918;50.796;6.772;2024-02-21T00:36:13;11.17;;;6.60;;
1837;SDS011;918;50.796;6.772;2024-02-21T00:38:40;10.60;;;7.23;;
1837;SDS011;918;50.796;6.772;2024-02-21T00:41:05;10.93;;;7.33;;
1837;SDS011;918;50.796;6.772;2024-02-21T00:43:31;7.57;;;6.40;;
1837;SDS011;918;50.796;6.772;2024-02-21T00:45:56;8.70;;;6.90;;
1837;SDS011;918;50.796;6.772;2024-02-21T00:48:21;9.33;;;5.80;;
1837;SDS011;918;50.796;6.772;2024-02-21T00:50:47;15.40;;;7.23;;
1837;SDS011;918;50.796;6.772;2024-02-21T00:53:12;12.07;;;7.73;;
1837;SDS011;918;50.796;6.772;2024-02-21T00:55:38;12.77;;;6.80;;
1837;SDS011;918;50.796;6.772;2024-02-21T00:58:03;9.00;;;7.00;;
1837;SDS011;918;50.796;6.772;2024-02-21T01:00:28;10.80;;;6.53;;
1837;SDS011;918;50.796;6.772;2024-02-21T01:02:54;12.03;;;7.33;;
1837;SDS011;918;50.796;6.772;2024-02-21T01:05:19;10.00;;;7.07;;
1837;SDS011;918;50.796;6.772;2024-02-21T01:07:45;8.57;;;7.00;;
1837;SDS011;918;50.796;6.772;2024-02-21T01:10:10;11.90;;;7.30;;
1837;SDS011;918;50.796;6.772;2024-02-21T01:12:35;8.53;;;6.77;;
1837;SDS011;918;50.796;6.772;2024-02-21T01:15:01;11.40;;;7.53;;
1837;SDS011;918;50.796;6.772;2024-02-21T01:17:26;9.03;;;6.37;;
1837;SDS011;918;50.796;6.772;2024-02-21T01:19:51;8.93;;;5.80;;
1837;SDS011;918;50.796;6.772;2024-02-21T01:22:16;10.40;;;6.13;;
1837;SDS011;918;50.796;6.772;2024-02-21T01:24:42;13.90;;;7.70;;
1837;SDS011;918;50.796;6.772;2024-02-21T01:27:08;12.70;;;7.23;;
1837;SDS011;918;50.796;6.772;2024-02-21T01:29:33;10.30;;;6.53;;
1837;SDS011;918;50.796;6.772;2024-02-21T01:31:58;7.60;;;5.37;;
1837;SDS011;918;50.796;6.772;2024-02-21T01:34:24;10.10;;;6.77;;
1837;SDS011;918;50.796;6.772;2024-02-21T01:36:49;9.70;;;6.37;;
1837;SDS011;918;50.796;6.772;2024-02-21T01:39:14;10.20;;;6.70;;
1837;SDS011;918;50.796;6.772;2024-02-21T01:41:40;10.93;;;7.50;;
1837;SDS011;918;50.796;6.772;2024-02-21T01:44:05;9.37;;;5.67;;
1837;SDS011;918;50.796;6.772;2024-02-21T01:46:30;12.07;;;7.93;;
1837;SDS011;918;50.796;6.772;2024-02-21T01:48:56;12.50;;;7.10;;
1837;SDS011;918;50.796;6.772;2024-02-21T01:51:22;10.63;;;6.53;;
1837;SDS011;918;50.796;6.772;2024-02-21T01:53:48;11.17;;;6.30;;
1837;SDS011;918;50.796;6.772;2024-02-21T01:56:15;7.57;;;5.83;;
1837;SDS011;918;50.796;6.772;2024-02-21T01:58:41;7.70;;;6.33;;
1837;SDS011;918;50.796;6.772;2024-02-21T02:01:07;10.90;;;8.13;;
1837;SDS011;918;50.796;6.772;2024-02-21T02:03:33;10.10;;;6.07;;
1837;SDS011;918;50.796;6.772;2024-02-21T02:05:58;9.43;;;6.30;;
1837;SDS011;918;50.796;6.772;2024-02-21T02:08:24;11.33;;;5.90;;
1837;SDS011;918;50.796;6.772;2024-02-21T02:10:49;7.97;;;7.17;;
1837;SDS011;918;50.796;6.772;2024-02-21T02:13:15;10.50;;;5.97;;
1837;SDS011;918;50.796;6.772;2024-02-21T02:18:10;8.50;;;6.50;;
1837;SDS011;918;50.796;6.772;2024-02-21T02:20:36;14.57;;;7.67;;
1837;SDS011;918;50.796;6.772;2024-02-21T02:25:33;9.00;;;6.30;;
1837;SDS011;918;50.796;6.772;2024-02-21T02:27:59;10.07;;;6.80;;
1837;SDS011;918;50.796;6.772;2024-02-21T02:30:24;10.83;;;6.70;;
1837;SDS011;918;50.796;6.772;2024-02-21T02:32:49;11.10;;;6.03;;
1837;SDS011;918;50.796;6.772;2024-02-21T02:35:15;7.80;;;7.00;;
1837;SDS011;918;50.796;6.772;2024-02-21T02:37:40;12.07;;;6.87;;
1837;SDS011;918;50.796;6.772;2024-02-21T02:40:06;11.90;;;6.73;;
1837;SDS011;918;50.796;6.772;2024-02-21T02:42:32;10.33;;;7.50;;
1837;SDS011;918;50.796;6.772;2024-02-21T02:44:57;8.90;;;6.70;;
1837;SDS011;918;50.796;6.772;2024-02-21T02:47:22;7.33;;;5.30;;
1837;SDS011;918;50.796;6.772;2024-02-21T02:49:48;11.23;;;6.60;;
1837;SDS011;918;50.796;6.772;2024-02-21T02:52:15;8.57;;;5.50;;
1837;SDS011;918;50.796;6.772;2024-02-21T02:54:41;9.77;;;5.60;;
1837;SDS011;918;50.796;6.772;2024-02-21T02:57:06;7.00;;;6.10;;
1837;SDS011;918;50.796;6.772;2024-02-21T02:59:32;9.07;;;6.40;;
1837;SDS011;918;50.796;6.772;2024-02-21T03:01:57;8.10;;;5.70;;
1837;SDS011;918;50.796;6.772;2024-02-21T03:04:23;8.40;;;6.30;;
1837;SDS011;918;50.796;6.772;2024-02-21T03:06:48;9.87;;;6.27;;
1837;SDS011;918;50.796;6.772;2024-02-21T03:09:14;11.83;;;6.60;;
1837;SDS011;918;50.796;6.772;2024-02-21T03:11:40;7.00;;;6.07;;
1837;SDS011;918;50.796;6.772;2024-02-21T03:14:08;9.03;;;6.13;;
1837;SDS011;918;50.796;6.772;2024-02-21T03:16:33;8.53;;;5.80;;
1837;SDS011;918;50.796;6.772;2024-02-21T03:18:58;7.90;;;6.50;;
1837;SDS011;918;50.796;6.772;2024-02-21T03:21:24;8.80;;;6.40;;
1837;SDS011;918;50.796;6.772;2024-02-21T03:23:49;8.10;;;6.17;;
1837;SDS011;918;50.796;6.772;2024-02-21T03:26:14;10.00;;;5.80;;
1837;SDS011;918;50.796;6.772;2024-02-21T03:28:42;7.23;;;5.43;;
1837;SDS011;918;50.796;6.772;2024-02-21T03:31:10;6.40;;;5.70;;
1837;SDS011;918;50.796;6.772;2024-02-21T03:33:36;8.03;;;7.17;;
1837;SDS011;918;50.796;6.772;2024-02-21T03:36:01;11.70;;;6.17;;
1837;SDS011;918;50.796;6.772;2024-02-21T03:38:26;11.47;;;7.17;;
1837;SDS011;918;50.796;6.772;2024-02-21T03:40:52;9.30;;;6.13;;
1837;SDS011;918;50.796;6.772;2024-02-21T03:43:17;7.63;;;5.30;;
1837;SDS011;918;50.796;6.772;2024-02-21T03:45:42;7.20;;;6.50;;
1837;SDS011;918;50.796;6.772;2024-02-21T03:48:07;9.33;;;6.03;;
1837;SDS011;918;50.796;6.772;2024-02-21T03:50:33;7.07;;;5.73;;
1837;SDS011;918;50.796;6.772;2024-02-21T03:52:58;10.17;;;6.13;;
1837;SDS011;918;50.796;6.772;2024-02-21T03:55:23;7.33;;;5.47;;
1837;SDS011;918;50.796;6.772;2024-02-21T03:57:48;7.90;;;5.60;;
1837;SDS011;918;50.796;6.772;2024-02-21T04:00:14;7.70;;;5.53;;
1837;SDS011;918;50.796;6.772;2024-02-21T04:02:39;12.00;;;6.60;;
1837;SDS011;918;50.796;6.772;2024-02-21T04:05:05;8.23;;;5.90;;
1837;SDS011;918;50.796;6.772;2024-02-21T04:07:31;9.40;;;6.23;;
1837;SDS011;918;50.796;6.772;2024-02-21T04:09:56;6.73;;;5.80;;
1837;SDS011;918;50.796;6.772;2024-02-21T04:12:21;8.67;;;5.77;;
1837;SDS011;918;50.796;6.772;2024-02-21T04:14:46;8.40;;;6.37;;
1837;SDS011;918;50.796;6.772;2024-02-21T04:17:12;9.83;;;5.83;;
1837;SDS011;918;50.796;6.772;2024-02-21T04:19:37;6.97;;;5.90;;
1837;SDS011;918;50.796;6.772;2024-02-21T04:22:03;6.27;;;5.30;;
1837;SDS011;918;50.796;6.772;2024-02-21T04:24:28;8.10;;;5.37;;
1837;SDS011;918;50.796;6.772;2024-02-21T04:26:54;9.37;;;6.03;;
1837;SDS011;918;50.796;6.772;2024-02-21T04:29:19;6.80;;;5.53;;
1837;SDS011;918;50.796;6.772;2024-02-21T04:31:44;8.27;;;5.80;;
1837;SDS011;918;50.796;6.772;2024-02-21T04:34:10;6.07;;;4.90;;
1837;SDS011;918;50.796;6.772;2024-02-21T04:36:36;10.50;;;5.53;;
1837;SDS011;918;50.796;6.772;2024-02-21T04:39:01;10.77;;;5.80;;
1837;SDS011;918;50.796;6.772;2024-02-21T04:41:26;6.77;;;5.43;;
1837;SDS011;918;50.796;6.772;2024-02-21T04:43:51;8.20;;;6.13;;
1837;SDS011;918;50.796;6.772;2024-02-21T04:46:17;6.50;;;5.43;;
1837;SDS011;918;50.796;6.772;2024-02-21T04:48:42;10.10;;;5.40;;
1837;SDS011;918;50.796;6.772;2024-02-21T04:51:08;9.47;;;5.60;;
1837;SDS011;918;50.796;6.772;2024-02-21T04:53:33;7.53;;;4.93;;
1837;SDS011;918;50.796;6.772;2024-02-21T04:55:59;6.43;;;4.77;;
1837;SDS011;918;50.796;6.772;2024-02-21T04:58:24;8.40;;;4.53;;
1837;SDS011;918;50.796;6.772;2024-02-21T05:00:50;6.33;;;5.33;;
1837;SDS011;918;50.796;6.772;2024-02-21T05:03:16;8.23;;;5.13;;
1837;SDS011;918;50.796;6.772;2024-02-21T05:05:41;4.80;;;4.30;;
1837;SDS011;918;50.796;6.772;2024-02-21T05:08:07;8.43;;;5.07;;
1837;SDS011;918;50.796;6.772;2024-02-21T05:10:35;8.80;;;5.37;;
1837;SDS011;918;50.796;6.772;2024-02-21T05:13:00;5.07;;;4.10;;
1837;SDS011;918;50.796;6.772;2024-02-21T05:15:25;7.33;;;5.27;;
1837;SDS011;918;50.796;6.772;2024-02-21T05:17:51;6.80;;;4.80;;
1837;SDS011;918;50.796;6.772;2024-02-21T05:20:16;8.87;;;5.40;;
1837;SDS011;918;50.796;6.772;2024-02-21T05:22:41;9.77;;;5.10;;
1837;SDS011;918;50.796;6.772;2024-02-21T05:25:07;10.23;;;5.73;;
1837;SDS011;918;50.796;6.772;2024-02-21T05:27:33;9.77;;;5.10;;
1837;SDS011;918;50.796;6.772;2024-02-21T05:29:58;10.77;;;5.33;;
1837;SDS011;918;50.796;6.772;2024-02-21T05:32:23;20.97;;;6.00;;
1837;SDS011;918;50.796;6.772;2024-02-21T05:34:49;5.90;;;5.20;;
1837;SDS011;918;50.796;6.772;2024-02-21T05:37:15;8.37;;;5.03;;
1837;SDS011;918;50.796;6.772;2024-02-21T05:39:40;6.17;;;4.63;;
1837;SDS011;918;50.796;6.772;2024-02-21T05:42:06;7.73;;;4.90;;
1837;SDS011;918;50.796;6.772;2024-02-21T05:44:31;9.20;;;5.10;;
1837;SDS011;918;50.796;6.772;2024-02-21T05:46:56;7.00;;;4.63;;
1837;SDS011;918;50.796;6.772;2024-02-21T05:49:22;7.03;;;4.97;;
1837;SDS011;918;50.796;6.772;2024-02-21T05:51:47;5.57;;;5.07;;
1837;SDS011;918;50.796;6.772;2024-02-21T05:54:12;14.43;;;5.17;;
1837;SDS011;918;50.796;6.772;2024-02-21T05:56:38;7.17;;;5.20;;
1837;SDS011;918;50.796;6.772;2024-02-21T05:59:03;7.00;;;5.00;;
1837;SDS011;918;50.796;6.772;2024-02-21T06:01:28;9.90;;;5.37;;
1837;SDS011;918;50.796;6.772;2024-02-21T06:03:53;7.30;;;5.17;;
1837;SDS011;918;50.796;6.772;2024-02-21T06:06:19;6.00;;;4.90;;
1837;SDS011;918;50.796;6.772;2024-02-21T06:08:46;8.10;;;4.87;;
1837;SDS011;918;50.796;6.772;2024-02-21T06:11:12;5.33;;;4.40;;
1837;SDS011;918;50.796;6.772;2024-02-21T06:13:40;9.57;;;5.67;;
1837;SDS011;918;50.796;6.772;2024-02-21T06:16:05;5.43;;;4.93;;
1837;SDS011;918;50.796;6.772;2024-02-21T06:18:31;7.50;;;4.40;;
1837;SDS011;918;50.796;6.772;2024-02-21T06:20:56;6.47;;;4.90;;
1837;SDS011;918;50.796;6.772;2024-02-21T06:23:22;6.53;;;5.90;;
1837;SDS011;918;50.796;6.772;2024-02-21T06:25:47;5.87;;;4.50;;
1837;SDS011;918;50.796;6.772;2024-02-21T06:28:12;7.53;;;4.93;;
1837;SDS011;918;50.796;6.772;2024-02-21T06:30:38;10.13;;;4.70;;
1837;SDS011;918;50.796;6.772;2024-02-21T06:33:04;6.53;;;4.50;;
1837;SDS011;918;50.796;6.772;2024-02-21T06:35:29;5.77;;;5.03;;
1837;SDS011;918;50.796;6.772;2024-02-21T06:37:54;6.97;;;4.70;;
1837;SDS011;918;50.796;6.772;2024-02-21T06:40:21;6.73;;;4.67;;
1837;SDS011;918;50.796;6.772;2024-02-21T06:42:47;5.83;;;4.63;;
1837;SDS011;918;50.796;6.772;2024-02-21T06:45:12;10.87;;;5.17;;
1837;SDS011;918;50.796;6.772;2024-02-21T06:47:38;4.63;;;4.10;;
1837;SDS011;918;50.796;6.772;2024-02-21T06:50:03;7.80;;;4.50;;
1837;SDS011;918;50.796;6.772;2024-02-21T06:52:29;6.60;;;4.70;;
1837;SDS011;918;50.796;6.772;2024-02-21T06:54:54;7.40;;;4.60;;
1837;SDS011;918;50.796;6.772;2024-02-21T06:57:19;5.87;;;4.70;;
1837;SDS011;918;50.796;6.772;2024-02-21T06:59:44;8.40;;;5.00;;
1837;SDS011;918;50.796;6.772;2024-02-21T07:02:10;6.00;;;4.47;;
1837;SDS011;918;50.796;6.772;2024-02-21T07:04:35;5.90;;;3.70;;
1837;SDS011;918;50.796;6.772;2024-02-21T07:07:00;5.37;;;4.40;;
1837;SDS011;918;50.796;6.772;2024-02-21T07:09:25;4.83;;;4.17;;
1837;SDS011;918;50.796;6.772;2024-02-21T07:11:51;6.03;;;4.53;;
1837;SDS011;918;50.796;6.772;2024-02-21T07:14:17;8.33;;;4.73;;
1837;SDS011;918;50.796;6.772;2024-02-21T07:16:43;8.13;;;4.87;;
1837;SDS011;918;50.796;6.772;2024-02-21T07:19:08;10.33;;;5.10;;
1837;SDS011;918;50.796;6.772;2024-02-21T07:21:33;6.90;;;5.07;;
1837;SDS011;918;50.796;6.772;2024-02-21T07:23:59;8.60;;;5.47;;
1837;SDS011;918;50.796;6.772;2024-02-21T07:26:24;8.83;;;5.20;;
1837;SDS011;918;50.796;6.772;2024-02-21T07:28:49;5.60;;;4.50;;
1837;SDS011;918;50.796;6.772;2024-02-21T07:31:15;6.83;;;5.80;;
1837;SDS011;918;50.796;6.772;2024-02-21T07:33:40;7.13;;;5.90;;
1837;SDS011;918;50.796;6.772;2024-02-21T07:36:06;6.77;;;5.63;;
1837;SDS011;918;50.796;6.772;2024-02-21T07:38:32;8.47;;;5.27;;
1837;SDS011;918;50.796;6.772;2024-02-21T07:40:57;7.30;;;5.17;;
1837;SDS011;918;50.796;6.772;2024-02-21T07:43:23;6.23;;;5.60;;
1837;SDS011;918;50.796;6.772;2024-02-21T07:45:48;7.17;;;5.17;;
1837;SDS011;918;50.796;6.772;2024-02-21T07:48:13;12.17;;;6.27;;
1837;SDS011;918;50.796;6.772;2024-02-21T07:50:38;8.30;;;5.50;;
1837;SDS011;918;50.796;6.772;2024-02-21T07:53:04;7.67;;;5.80;;
1837;SDS011;918;50.796;6.772;2024-02-21T07:55:29;10.87;;;6.63;;
1837;SDS011;918;50.796;6.772;2024-02-21T07:57:54;8.83;;;5.70;;
1837;SDS011;918;50.796;6.772;2024-02-21T08:00:20;7.80;;;5.73;;
1837;SDS011;918;50.796;6.772;2024-02-21T08:02:46;8.70;;;5.80;;
1837;SDS011;918;50.796;6.772;2024-02-21T08:05:12;8.80;;;5.73;;
1837;SDS011;918;50.796;6.772;2024-02-21T08:07:38;7.83;;;5.53;;
1837;SDS011;918;50.796;6.772;2024-02-21T08:10:03;9.57;;;6.43;;
1837;SDS011;918;50.796;6.772;2024-02-21T08:12:29;9.00;;;5.73;;
1837;SDS011;918;50.796;6.772;2024-02-21T08:14:54;7.83;;;5.87;;
1837;SDS011;918;50.796;6.772;2024-02-21T08:17:20;8.43;;;4.97;;
1837;SDS011;918;50.796;6.772;2024-02-21T08:19:45;7.97;;;5.47;;
1837;SDS011;918;50.796;6.772;2024-02-21T08:22:10;9.27;;;5.27;;
1837;SDS011;918;50.796;6.772;2024-02-21T08:24:35;7.40;;;4.67;;
1837;SDS011;918;50.796;6.772;2024-02-21T08:27:01;6.83;;;4.60;;
1837;SDS011;918;50.796;6.772;2024-02-21T08:29:26;5.17;;;4.57;;
1837;SDS011;918;50.796;6.772;2024-02-21T08:31:52;7.77;;;5.80;;
1837;SDS011;918;50.796;6.772;2024-02-21T08:34:18;8.87;;;4.67;;
1837;SDS011;918;50.796;6.772;2024-02-21T08:36:43;7.63;;;5.30;;
1837;SDS011;918;50.796;6.772;2024-02-21T08:39:09;10.43;;;5.57;;
1837;SDS011;918;50.796;6.772;2024-02-21T08:41:34;6.57;;;4.80;;
1837;SDS011;918;50.796;6.772;2024-02-21T08:44:00;8.63;;;5.13;;
1837;SDS011;918;50.796;6.772;2024-02-21T08:46:26;6.23;;;4.77;;
1837;SDS011;918;50.796;6.772;2024-02-21T08:48:52;6.13;;;5.27;;
1837;SDS011;918;50.796;6.772;2024-02-21T08:51:17;6.80;;;4.90;;
1837;SDS011;918;50.796;6.772;2024-02-21T08:53:46;6.13;;;4.87;;
1837;SDS011;918;50.796;6.772;2024-02-21T08:56:11;9.40;;;4.20;;
1837;SDS011;918;50.796;6.772;2024-02-21T08:58:37;6.30;;;5.20;;
1837;SDS011;918;50.796;6.772;2024-02-21T09:01:03;5.40;;;4.50;;
1837;SDS011;918;50.796;6.772;2024-02-21T09:03:33;7.17;;;4.63;;
1837;SDS011;918;50.796;6.772;2024-02-21T09:05:59;6.17;;;5.17;;
1837;SDS011;918;50.796;6.772;2024-02-21T09:08:24;6.73;;;4.77;;
1837;SDS011;918;50.796;6.772;2024-02-21T09:10:50;10.73;;;4.43;;
1837;SDS011;918;50.796;6.772;2024-02-21T09:13:15;4.10;;;3.70;;
1837;SDS011;918;50.796;6.772;2024-02-21T09:15:41;4.47;;;3.70;;
1837;SDS011;918;50.796;6.772;2024-02-21T09:18:07;7.40;;;4.60;;
1837;SDS011;918;50.796;6.772;2024-02-21T09:20:32;6.70;;;4.40;;
1837;SDS011;918;50.796;6.772;2024-02-21T09:22:57;8.07;;;4.03;;
1837;SDS011;918;50.796;6.772;2024-02-21T09:25:23;5.37;;;3.80;;
1837;SDS011;918;50.796;6.772;2024-02-21T09:27:48;7.03;;;4.03;;
1837;SDS011;918;50.796;6.772;2024-02-21T09:30:13;7.07;;;3.87;;
1837;SDS011;918;50.796;6.772;2024-02-21T09:32:39;9.67;;;5.23;;
1837;SDS011;918;50.796;6.772;2024-02-21T09:35:04;6.27;;;4.13;;
1837;SDS011;918;50.796;6.772;2024-02-21T09:37:33;8.50;;;4.50;;
1837;SDS011;918;50.796;6.772;2024-02-21T09:39:59;10.17;;;5.27;;
1837;SDS011;918;50.796;6.772;2024-02-21T09:42:27;6.07;;;4.90;;
1837;SDS011;918;50.796;6.772;2024-02-21T09:45:02;4.97;;;4.10;;
1837;SDS011;918;50.796;6.772;2024-02-21T09:47:31;6.30;;;4.57;;
1837;SDS011;918;50.796;6.772;2024-02-21T09:50:21;7.27;;;3.83;;
1837;SDS011;918;50.796;6.772;2024-02-21T09:52:48;6.33;;;3.63;;
1837;SDS011;918;50.796;6.772;2024-02-21T09:55:13;5.67;;;4.03;;
1837;SDS011;918;50.796;6.772;2024-02-21T09:57:39;5.37;;;3.57;;
1837;SDS011;918;50.796;6.772;2024-02-21T10:00:05;9.43;;;3.30;;
1837;SDS011;918;50.796;6.772;2024-02-21T10:02:33;5.23;;;3.47;;
1837;SDS011;918;50.796;6.772;2024-02-21T10:04:58;4.60;;;3.63;;
1837;SDS011;918;50.796;6.772;2024-02-21T10:07:24;6.00;;;3.90;;
1837;SDS011;918;50.796;6.772;2024-02-21T10:09:59;4.30;;;3.40;;
1837;SDS011;918;50.796;6.772;2024-02-21T10:12:26;4.50;;;2.90;;
1837;SDS011;918;50.796;6.772;2024-02-21T10:14:59;4.43;;;2.70;;
1837;SDS011;918;50.796;6.772;2024-02-21T10:17:25;4.63;;;3.10;;
1837;SDS011;918;50.796;6.772;2024-02-21T10:19:50;5.73;;;3.57;;
1837;SDS011;918;50.796;6.772;2024-02-21T10:22:17;4.50;;;3.37;;
1837;SDS011;918;50.796;6.772;2024-02-21T10:24:42;7.93;;;3.57;;
1837;SDS011;918;50.796;6.772;2024-02-21T10:27:08;6.00;;;3.93;;
1837;SDS011;918;50.796;6.772;2024-02-21T10:29:35;5.17;;;3.40;;
1837;SDS011;918;50.796;6.772;2024-02-21T10:32:07;4.50;;;3.43;;
1837;SDS011;918;50.796;6.772;2024-02-21T10:34:33;3.33;;;2.83;;
1837;SDS011;918;50.796;6.772;2024-02-21T10:37:02;4.47;;;2.80;;
1837;SDS011;918;50.796;6.772;2024-02-21T10:39:28;4.30;;;2.90;;
1837;SDS011;918;50.796;6.772;2024-02-21T10:41:55;5.87;;;3.40;;
1837;SDS011;918;50.796;6.772;2024-02-21T10:44:24;5.00;;;3.33;;
1837;SDS011;918;50.796;6.772;2024-02-21T10:46:51;4.40;;;3.00;;
1837;SDS011;918;50.796;6.772;2024-02-21T10:49:20;7.87;;;3.17;;
1837;SDS011;918;50.796;6.772;2024-02-21T10:51:50;3.83;;;3.13;;
1837;SDS011;918;50.796;6.772;2024-02-21T10:54:44;5.90;;;2.70;;
1837;SDS011;918;50.796;6.772;2024-02-21T10:57:12;7.43;;;3.07;;
1837;SDS011;918;50.796;6.772;2024-02-21T10:59:37;5.00;;;3.13;;
1837;SDS011;918;50.796;6.772;2024-02-21T11:02:04;4.40;;;2.87;;
1837;SDS011;918;50.796;6.772;2024-02-21T11:04:30;3.53;;;2.87;;
1837;SDS011;918;50.796;6.772;2024-02-21T11:06:56;7.40;;;3.00;;
1837;SDS011;918;50.796;6.772;2024-02-21T11:09:32;4.63;;;3.27;;
1837;SDS011;918;50.796;6.772;2024-02-21T11:11:58;9.40;;;2.90;;
1837;SDS011;918;50.796;6.772;2024-02-21T11:14:26;4.77;;;3.03;;
1837;SDS011;918;50.796;6.772;2024-02-21T11:16:52;6.80;;;3.00;;
1837;SDS011;918;50.796;6.772;2024-02-21T11:19:27;4.97;;;2.90;;
1837;SDS011;918;50.796;6.772;2024-02-21T11:21:54;4.60;;;3.00;;
1837;SDS011;918;50.796;6.772;2024-02-21T11:24:26;6.03;;;3.00;;
1837;SDS011;918;50.796;6.772;2024-02-21T11:26:53;5.03;;;3.03;;
1837;SDS011;918;50.796;6.772;2024-02-21T11:29:25;4.50;;;3.10;;
1837;SDS011;918;50.796;6.772;2024-02-21T11:31:51;5.00;;;2.70;;
1837;SDS011;918;50.796;6.772;2024-02-21T11:34:19;4.80;;;3.57;;
1837;SDS011;918;50.796;6.772;2024-02-21T11:36:48;6.37;;;3.40;;
1837;SDS011;918;50.796;6.772;2024-02-21T11:39:18;6.47;;;3.17;;
1837;SDS011;918;50.796;6.772;2024-02-21T11:41:45;5.20;;;3.40;;
1837;SDS011;918;50.796;6.772;2024-02-21T11:44:11;4.23;;;3.40;;
1837;SDS011;918;50.796;6.772;2024-02-21T11:46:36;5.27;;;3.60;;
1837;SDS011;918;50.796;6.772;2024-02-21T11:49:02;4.93;;;3.23;;
1837;SDS011;918;50.796;6.772;2024-02-21T11:51:28;5.03;;;3.50;;
1837;SDS011;918;50.796;6.772;2024-02-21T11:53:53;6.80;;;3.17;;
1837;SDS011;918;50.796;6.772;2024-02-21T11:56:19;5.30;;;3.67;;
1837;SDS011;918;50.796;6.772;2024-02-21T11:58:48;6.30;;;3.43;;
1837;SDS011;918;50.796;6.772;2024-02-21T12:01:14;3.93;;;3.43;;
1837;SDS011;918;50.796;6.772;2024-02-21T12:03:39;5.47;;;4.00;;
1837;SDS011;918;50.796;6.772;2024-02-21T12:06:06;4.67;;;4.20;;
1837;SDS011;918;50.796;6.772;2024-02-21T12:08:41;3.90;;;3.00;;
1837;SDS011;918;50.796;6.772;2024-02-21T12:11:20;4.60;;;3.90;;
1837;SDS011;918;50.796;6.772;2024-02-21T12:13:47;7.77;;;4.30;;
1837;SDS011;918;50.796;6.772;2024-02-21T12:16:14;6.03;;;3.53;;
1837;SDS011;918;50.796;6.772;2024-02-21T12:18:41;7.90;;;4.90;;
1837;SDS011;918;50.796;6.772;2024-02-21T12:21:06;4.07;;;3.67;;
1837;SDS011;918;50.796;6.772;2024-02-21T12:23:32;4.10;;;3.50;;
1837;SDS011;918;50.796;6.772;2024-02-21T12:25:58;5.60;;;5.00;;
1837;SDS011;918;50.796;6.772;2024-02-21T12:28:24;5.03;;;3.73;;
1837;SDS011;918;50.796;6.772;2024-02-21T12:30:49;5.07;;;3.73;;
1837;SDS011;918;50.796;6.772;2024-02-21T12:33:14;6.80;;;3.47;;
1837;SDS011;918;50.796;6.772;2024-02-21T12:35:40;5.60;;;3.87;;
1837;SDS011;918;50.796;6.772;2024-02-21T12:38:05;6.50;;;3.53;;
1837;SDS011;918;50.796;6.772;2024-02-21T12:40:30;3.93;;;3.53;;
1837;SDS011;918;50.796;6.772;2024-02-21T12:42:58;6.40;;;3.90;;
1837;SDS011;918;50.796;6.772;2024-02-21T12:45:24;5.20;;;3.37;;
1837;SDS011;918;50.796;6.772;2024-02-21T12:47:50;4.17;;;3.60;;
1837;SDS011;918;50.796;6.772;2024-02-21T12:50:15;6.43;;;3.57;;
1837;SDS011;918;50.796;6.772;2024-02-21T12:52:40;7.13;;;3.90;;
1837;SDS011;918;50.796;6.772;2024-02-21T12:55:06;4.60;;;3.13;;
1837;SDS011;918;50.796;6.772;2024-02-21T12:57:31;4.47;;;3.63;;
1837;SDS011;918;50.796;6.772;2024-02-21T12:59:57;6.40;;;4.17;;
1837;SDS011;918;50.796;6.772;2024-02-21T13:02:22;5.57;;;3.50;;
1837;SDS011;918;50.796;6.772;2024-02-21T13:04:47;6.63;;;3.83;;
1837;SDS011;918;50.796;6.772;2024-02-21T13:07:13;6.83;;;4.13;;
1837;SDS011;918;50.796;6.772;2024-02-21T13:09:38;3.90;;;3.30;;
1837;SDS011;918;50.796;6.772;2024-02-21T13:12:03;5.60;;;3.67;;
1837;SDS011;918;50.796;6.772;2024-02-21T13:14:29;7.73;;;3.03;;
1837;SDS011;918;50.796;6.772;2024-02-21T13:16:55;8.33;;;3.93;;
1837;SDS011;918;50.796;6.772;2024-02-21T13:19:20;5.10;;;3.17;;
1837;SDS011;918;50.796;6.772;2024-02-21T13:21:45;4.73;;;3.30;;
1837;SDS011;918;50.796;6.772;2024-02-21T13:24:11;2.70;;;2.43;;
1837;SDS011;918;50.796;6.772;2024-02-21T13:26:36;5.50;;;3.00;;
1837;SDS011;918;50.796;6.772;2024-02-21T13:29:01;3.90;;;3.10;;
1837;SDS011;918;50.796;6.772;2024-02-21T13:31:27;5.83;;;3.10;;
1837;SDS011;918;50.796;6.772;2024-02-21T13:33:52;5.13;;;3.40;;
1837;SDS011;918;50.796;6.772;2024-02-21T13:36:18;6.30;;;3.20;;
1837;SDS011;918;50.796;6.772;2024-02-21T13:38:44;6.80;;;2.80;;
1837;SDS011;918;50.796;6.772;2024-02-21T13:41:09;5.00;;;3.13;;
1837;SDS011;918;50.796;6.772;2024-02-21T13:43:34;7.17;;;3.77;;
1837;SDS011;918;50.796;6.772;2024-02-21T13:46:00;5.30;;;3.77;;
1837;SDS011;918;50.796;6.772;2024-02-21T13:48:27;3.70;;;3.37;;
1837;SDS011;918;50.796;6.772;2024-02-21T13:50:54;6.17;;;4.10;;
1837;SDS011;918;50.796;6.772;2024-02-21T13:53:19;7.60;;;4.70;;
1837;SDS011;918;50.796;6.772;2024-02-21T13:55:45;6.93;;;3.00;;
1837;SDS011;918;50.796;6.772;2024-02-21T13:58:11;4.50;;;3.40;;
1837;SDS011;918;50.796;6.772;2024-02-21T14:00:36;4.47;;;3.77;;
1837;SDS011;918;50.796;6.772;2024-02-21T14:03:01;6.37;;;3.77;;
1837;SDS011;918;50.796;6.772;2024-02-21T14:05:27;3.30;;;3.00;;
1837;SDS011;918;50.796;6.772;2024-02-21T14:07:52;4.40;;;3.23;;
1837;SDS011;918;50.796;6.772;2024-02-21T14:10:19;4.93;;;4.07;;
1837;SDS011;918;50.796;6.772;2024-02-21T14:12:45;3.50;;;3.10;;
1837;SDS011;918;50.796;6.772;2024-02-21T14:15:10;6.47;;;4.27;;
1837;SDS011;918;50.796;6.772;2024-02-21T14:17:36;5.33;;;2.97;;
1837;SDS011;918;50.796;6.772;2024-02-21T14:20:01;3.43;;;3.13;;
1837;SDS011;918;50.796;6.772;2024-02-21T14:22:29;4.43;;;2.70;;
1837;SDS011;918;50.796;6.772;2024-02-21T14:24:54;3.10;;;2.90;;
1837;SDS011;918;50.796;6.772;2024-02-21T14:27:21;3.90;;;2.77;;
1837;SDS011;918;50.796;6.772;2024-02-21T14:29:46;5.60;;;3.27;;
1837;SDS011;918;50.796;6.772;2024-02-21T14:32:12;3.70;;;3.00;;
1837;SDS011;918;50.796;6.772;2024-02-21T14:34:38;4.23;;;3.00;;
1837;SDS011;918;50.796;6.772;2024-02-21T14:37:03;5.20;;;3.00;;
1837;SDS011;918;50.796;6.772;2024-02-21T14:39:29;5.93;;;3.27;;
1837;SDS011;918;50.796;6.772;2024-02-21T14:41:54;4.17;;;3.53;;
1837;SDS011;918;50.796;6.772;2024-02-21T14:44:19;2.53;;;2.00;;
1837;SDS011;918;50.796;6.772;2024-02-21T14:46:45;3.70;;;2.43;;
1837;SDS011;918;50.796;6.772;2024-02-21T14:49:10;3.93;;;2.80;;
1837;SDS011;918;50.796;6.772;2024-02-21T14:51:36;3.33;;;2.60;;
1837;SDS011;918;50.796;6.772;2024-02-21T14:54:01;4.90;;;2.03;;
1837;SDS011;918;50.796;6.772;2024-02-21T14:56:27;4.20;;;2.80;;
1837;SDS011;918;50.796;6.772;2024-02-21T14:58:52;2.93;;;2.63;;
1837;SDS011;918;50.796;6.772;2024-02-21T15:01:17;4.43;;;2.50;;
1837;SDS011;918;50.796;6.772;2024-02-21T15:03:43;4.20;;;2.37;;
1837;SDS011;918;50.796;6.772;2024-02-21T15:06:08;6.30;;;2.53;;
1837;SDS011;918;50.796;6.772;2024-02-21T15:08:33;5.50;;;2.57;;
1837;SDS011;918;50.796;6.772;2024-02-21T15:10:59;4.40;;;2.43;;
1837;SDS011;918;50.796;6.772;2024-02-21T15:13:24;6.13;;;2.57;;
1837;SDS011;918;50.796;6.772;2024-02-21T15:15:49;2.77;;;2.33;;
1837;SDS011;918;50.796;6.772;2024-02-21T15:18:16;3.60;;;2.83;;
1837;SDS011;918;50.796;6.772;2024-02-21T15:20:41;3.27;;;2.83;;
1837;SDS011;918;50.796;6.772;2024-02-21T15:23:07;4.50;;;2.57;;
1837;SDS011;918;50.796;6.772;2024-02-21T15:25:32;1.90;;;1.60;;